Time;durP1;ratioP1;P1;durP2;ratioP2;P2;SDS_P1;SDS_P2;PMS_P1;PMS_P2;Temp;Humidity;BMP_temperature;BMP_pressure;BME280_temperature;BME280_humidity;BME280_pressure;Samples;Min_cycle;Max_cycle;Signal;HPM_P1;HPM_P2
2022/06/01 00:01:13;;;;;;;36.15;16.75;;;;;;;;;;5013130;28;20057;-52
2022/06/01 00:03:41;;;;;;;29.15;14.95;;;;;;;;;;5013016;28;20030;-56
2022/06/01 00:06:07;;;;;;;40.58;17.25;;;;;;;;;;5012829;28;20026;-51
2022/06/01 00:08:33;;;;;;;42.25;20.02;;;;;;;;;;5012919;28;20060;-56
2022/06/01 00:11:00;;;;;;;43.38;20.88;;;;;;;;;;4995414;28;20091;-54
2022/06/01 00:13:26;;;;;;;36.17;18.88;;;;;;;;;;5012781;28;20026;-54
2022/06/01 00:15:52;;;;;;;31.63;17.05;;;;;;;;;;5013037;28;20069;-40
2022/06/01 00:18:18;;;;;;;34.65;16.73;;;;;;;;;;4995218;28;20026;-41
2022/06/01 00:20:45;;;;;;;30.85;16.52;;;;;;;;;;5012533;28;20033;-40
2022/06/01 00:23:11;;;;;;;29.42;16.42;;;;;;;;;;5012738;28;20530;-39
2022/06/01 00:25:36;;;;;;;30.23;16.05;;;;;;;;;;5012673;28;20236;-38
2022/06/01 00:28:02;;;;;;;36.65;17.02;;;;;;;;;;5012963;28;20111;-39
2022/06/01 00:30:28;;;;;;;32.53;15.65;;;;;;;;;;5012582;28;20398;-59
2022/06/01 00:32:54;;;;;;;31.77;17.30;;;;;;;;;;5012565;28;20041;-48
2022/06/01 00:35:22;;;;;;;40.53;18.02;;;;;;;;;;5012676;28;20040;-46
2022/06/01 00:37:47;;;;;;;41.30;18.13;;;;;;;;;;5012596;28;20639;-48
2022/06/01 00:40:15;;;;;;;39.25;17.27;;;;;;;;;;5012755;28;20040;-54
2022/06/01 00:42:42;;;;;;;35.03;15.27;;;;;;;;;;5014178;28;20018;-56
2022/06/01 00:45:10;;;;;;;36.90;15.70;;;;;;;;;;5016555;28;20155;-53
2022/06/01 00:47:36;;;;;;;34.25;16.88;;;;;;;;;;5016507;28;20048;-59
2022/06/01 00:50:07;;;;;;;36.13;16.08;;;;;;;;;;5016821;28;20104;-55
2022/06/01 00:52:37;;;;;;;33.25;16.20;;;;;;;;;;5016476;28;20488;-51
2022/06/01 00:55:08;;;;;;;37.83;16.75;;;;;;;;;;5016784;28;20030;-50
2022/06/01 00:57:34;;;;;;;44.42;20.02;;;;;;;;;;5016625;28;20093;-54
2022/06/01 01:00:07;;;;;;;49.30;20.08;;;;;;;;;;5016282;28;20172;-53
2022/06/01 01:02:33;;;;;;;48.95;20.08;;;;;;;;;;5016241;28;20075;-55
2022/06/01 01:05:00;;;;;;;49.95;21.65;;;;;;;;;;5016270;28;20448;-39
2022/06/01 01:07:26;;;;;;;51.20;21.30;;;;;;;;;;5016158;28;20117;-59
2022/06/01 01:09:52;;;;;;;37.75;18.00;;;;;;;;;;5016307;28;20026;-49
2022/06/01 01:12:18;;;;;;;37.35;16.85;;;;;;;;;;5016165;28;20025;-54
2022/06/01 01:14:45;;;;;;;35.60;16.90;;;;;;;;;;5016268;28;20517;-46
2022/06/01 01:17:11;;;;;;;41.38;18.67;;;;;;;;;;5015984;28;20042;-57
2022/06/01 01:19:39;;;;;;;29.75;14.55;;;;;;;;;;5015880;28;20488;-59
2022/06/01 01:22:11;;;;;;;30.88;14.85;;;;;;;;;;5016004;28;20022;-59
2022/06/01 01:25:09;;;;;;;40.75;19.00;;;;;;;;;;5015895;28;20092;-54
2022/06/01 01:27:35;;;;;;;39.45;18.60;;;;;;;;;;5016081;28;20033;-59
2022/06/01 01:30:00;;;;;;;34.17;17.55;;;;;;;;;;5015541;28;20583;-58
2022/06/01 01:32:25;;;;;;;38.00;16.92;;;;;;;;;;5015996;28;20112;-56
2022/06/01 01:34:51;;;;;;;45.58;20.30;;;;;;;;;;5015927;28;20018;-59
2022/06/01 01:37:24;;;;;;;42.35;17.25;;;;;;;;;;5015583;28;20101;-52
2022/06/01 01:39:52;;;;;;;37.25;15.48;;;;;;;;;;5015522;28;20029;-49
2022/06/01 01:42:19;;;;;;;31.75;13.88;;;;;;;;;;5015773;28;20428;-49
2022/06/01 01:45:30;;;;;;;28.38;13.00;;;;;;;;;;5015452;28;20381;-59
2022/06/01 01:47:56;;;;;;;33.63;14.68;;;;;;;;;;4997304;28;20041;-56
2022/06/01 01:50:22;;;;;;;39.30;14.88;;;;;;;;;;5015631;28;20400;-60
2022/06/01 01:52:49;;;;;;;37.03;17.10;;;;;;;;;;5015228;28;20037;-47
2022/06/01 01:55:36;;;;;;;39.67;16.13;;;;;;;;;;5015557;28;20414;-60
2022/06/01 01:58:31;;;;;;;40.72;16.35;;;;;;;;;;5015527;28;20445;-57
2022/06/01 02:01:19;;;;;;;48.28;19.23;;;;;;;;;;4998003;28;20050;-59
2022/06/01 02:03:53;;;;;;;39.85;16.83;;;;;;;;;;5014527;28;20038;-57
2022/06/01 02:06:26;;;;;;;40.30;16.45;;;;;;;;;;5015087;28;20026;-40
2022/06/01 02:08:56;;;;;;;46.15;18.17;;;;;;;;;;5015194;28;20030;-39
2022/06/01 02:14:25;;;;;;;32.38;16.30;;;;;;;;;;5015079;28;20115;-57
2022/06/01 02:17:04;;;;;;;42.55;19.02;;;;;;;;;;5014948;28;20469;-45
2022/06/01 02:19:34;;;;;;;46.08;20.75;;;;;;;;;;5014768;28;20025;-50
2022/06/01 02:22:00;;;;;;;45.83;20.38;;;;;;;;;;5014829;28;20034;-50
2022/06/01 02:24:26;;;;;;;50.67;20.98;;;;;;;;;;5014799;28;20045;-47
2022/06/01 02:26:54;;;;;;;57.28;22.98;;;;;;;;;;5014607;28;20026;-56
2022/06/01 02:29:45;;;;;;;58.03;22.50;;;;;;;;;;5014760;28;20405;-50
2022/06/01 02:32:12;;;;;;;58.92;23.25;;;;;;;;;;5006428;28;20042;-49
2022/06/01 02:34:39;;;;;;;59.08;23.92;;;;;;;;;;5014524;28;20061;-51
2022/06/01 02:37:07;;;;;;;53.90;22.13;;;;;;;;;;5014511;28;20478;-51
2022/06/01 02:39:36;;;;;;;57.10;23.55;;;;;;;;;;4980841;28;20429;-44
2022/06/01 02:42:31;;;;;;;54.50;22.38;;;;;;;;;;5014353;28;20128;-58
2022/06/01 02:45:04;;;;;;;54.47;23.13;;;;;;;;;;5014458;28;20025;-59
2022/06/01 02:47:32;;;;;;;52.92;22.85;;;;;;;;;;5014668;28;20048;-40
2022/06/01 02:49:59;;;;;;;55.85;24.15;;;;;;;;;;5014328;28;20521;-40
2022/06/01 02:52:25;;;;;;;57.63;23.25;;;;;;;;;;5014447;28;20038;-44
2022/06/01 02:54:52;;;;;;;54.60;23.67;;;;;;;;;;5014440;28;20022;-56
2022/06/01 02:57:18;;;;;;;57.50;26.05;;;;;;;;;;5014101;28;20662;-58
2022/06/01 02:59:44;;;;;;;53.58;23.42;;;;;;;;;;5013871;28;20026;-50
2022/06/01 03:02:10;;;;;;;57.63;24.95;;;;;;;;;;5014042;28;20054;-58
2022/06/01 03:04:37;;;;;;;62.85;26.15;;;;;;;;;;5013729;28;20054;-57
2022/06/01 03:07:03;;;;;;;58.28;25.27;;;;;;;;;;5013836;28;20101;-58
2022/06/01 03:09:29;;;;;;;56.25;23.23;;;;;;;;;;5014221;28;20026;-59
2022/06/01 03:11:55;;;;;;;65.90;25.95;;;;;;;;;;5013798;28;20026;-49
2022/06/01 03:14:21;;;;;;;60.67;24.42;;;;;;;;;;5014130;28;20161;-57
2022/06/01 03:16:46;;;;;;;61.92;25.58;;;;;;;;;;5013769;28;20496;-53
2022/06/01 03:19:12;;;;;;;66.82;26.80;;;;;;;;;;5013648;28;20116;-56
2022/06/01 03:21:38;;;;;;;62.65;25.33;;;;;;;;;;5013900;28;20044;-45
2022/06/01 03:24:05;;;;;;;66.57;26.35;;;;;;;;;;5013688;28;20382;-46
2022/06/01 03:26:31;;;;;;;70.70;26.55;;;;;;;;;;5013669;28;20026;-59
2022/06/01 03:28:56;;;;;;;66.70;27.95;;;;;;;;;;5013640;28;20057;-58
2022/06/01 03:31:22;;;;;;;61.20;26.63;;;;;;;;;;5013407;28;20136;-53
2022/06/01 03:33:48;;;;;;;64.95;25.98;;;;;;;;;;5013735;28;20034;-45
2022/06/01 03:36:14;;;;;;;55.47;24.88;;;;;;;;;;5013731;28;20072;-59
2022/06/01 03:38:39;;;;;;;67.13;28.90;;;;;;;;;;5013418;28;20083;-59
2022/06/01 03:41:05;;;;;;;62.20;27.02;;;;;;;;;;5013615;28;20073;-58
2022/06/01 03:45:55;;;;;;;63.78;26.92;;;;;;;;;;5013408;28;20025;-60
2022/06/01 03:46:17;;;;;;;60.03;27.10;;;;;;;;;;5013252;28;20493;-58
2022/06/01 03:48:42;;;;;;;56.65;26.23;;;;;;;;;;5013262;28;20022;-57
2022/06/01 03:51:08;;;;;;;59.35;26.70;;;;;;;;;;5013214;28;20025;-58
2022/06/01 03:53:34;;;;;;;56.95;26.20;;;;;;;;;;4995588;28;20040;-58
2022/06/01 03:56:00;;;;;;;60.17;26.73;;;;;;;;;;4995556;28;20036;-59
2022/06/01 03:58:25;;;;;;;58.22;26.52;;;;;;;;;;5013128;28;20033;-57
2022/06/01 04:00:51;;;;;;;55.55;26.13;;;;;;;;;;5013035;28;20030;-60
2022/06/01 04:03:17;;;;;;;53.83;25.08;;;;;;;;;;5012954;28;20026;-49
2022/06/01 04:05:44;;;;;;;48.38;23.85;;;;;;;;;;5013029;28;20030;-59
2022/06/01 04:08:10;;;;;;;50.20;25.88;;;;;;;;;;5013269;28;20107;-59
2022/06/01 04:10:37;;;;;;;52.63;25.13;;;;;;;;;;5012896;28;20862;-59
2022/06/01 04:13:03;;;;;;;49.63;23.65;;;;;;;;;;5012859;28;20035;-54
2022/06/01 04:15:29;;;;;;;49.38;23.63;;;;;;;;;;5012844;28;20120;-58
2022/06/01 04:17:55;;;;;;;46.05;23.38;;;;;;;;;;5012152;28;20036;-44
2022/06/01 04:20:21;;;;;;;49.20;22.92;;;;;;;;;;5012776;28;20026;-56
2022/06/01 04:22:47;;;;;;;48.88;24.75;;;;;;;;;;5012548;28;20466;-57
2022/06/01 04:25:16;;;;;;;44.85;23.67;;;;;;;;;;5013006;28;20026;-54
2022/06/01 04:27:41;;;;;;;48.95;24.48;;;;;;;;;;5012896;28;20411;-48
2022/06/01 04:30:09;;;;;;;46.90;23.13;;;;;;;;;;5012581;28;20146;-45
2022/06/01 04:32:35;;;;;;;46.13;24.50;;;;;;;;;;5012616;28;20030;-55
2022/06/01 04:35:02;;;;;;;47.05;24.63;;;;;;;;;;5012562;28;20076;-50
2022/06/01 04:37:27;;;;;;;51.55;24.90;;;;;;;;;;5012764;28;20120;-45
2022/06/01 04:39:53;;;;;;;49.65;26.60;;;;;;;;;;5012494;28;20600;-50
2022/06/01 04:42:18;;;;;;;52.78;24.45;;;;;;;;;;5012476;28;20026;-50
2022/06/01 04:44:45;;;;;;;54.88;27.08;;;;;;;;;;5012846;28;20022;-54
2022/06/01 04:47:11;;;;;;;50.30;25.20;;;;;;;;;;5012568;28;20033;-42
2022/06/01 04:49:36;;;;;;;51.88;25.92;;;;;;;;;;5012708;28;20122;-59
2022/06/01 04:52:03;;;;;;;49.47;25.23;;;;;;;;;;5012762;28;20114;-55
2022/06/01 04:54:28;;;;;;;49.42;25.38;;;;;;;;;;5012684;28;20026;-52
2022/06/01 04:56:53;;;;;;;43.22;23.60;;;;;;;;;;5012701;28;20382;-51
2022/06/01 04:59:19;;;;;;;44.33;24.35;;;;;;;;;;5012493;28;20049;-58
2022/06/01 05:01:45;;;;;;;44.40;23.65;;;;;;;;;;5012301;28;20390;-58
2022/06/01 05:04:11;;;;;;;47.92;25.48;;;;;;;;;;5012619;28;20030;-57
2022/06/01 05:06:36;;;;;;;40.85;23.98;;;;;;;;;;5012436;28;20026;-60
2022/06/01 05:09:02;;;;;;;43.63;24.48;;;;;;;;;;5012318;28;20061;-45
2022/06/01 05:11:28;;;;;;;42.78;23.92;;;;;;;;;;5012563;28;20041;-55
2022/06/01 05:13:53;;;;;;;49.88;25.63;;;;;;;;;;5012305;28;20451;-59
2022/06/01 05:16:19;;;;;;;42.95;23.02;;;;;;;;;;5012536;28;20029;-60
2022/06/01 05:18:45;;;;;;;44.08;23.80;;;;;;;;;;5012518;28;20026;-59
2022/06/01 05:21:10;;;;;;;43.00;24.23;;;;;;;;;;5012148;28;20038;-54
2022/06/01 05:23:36;;;;;;;46.90;24.30;;;;;;;;;;5012228;28;20022;-58
2022/06/01 05:26:02;;;;;;;41.10;24.33;;;;;;;;;;5012390;28;20022;-59
2022/06/01 05:28:30;;;;;;;40.78;24.13;;;;;;;;;;5013313;28;20533;-58
2022/06/01 05:31:00;;;;;;;40.13;22.67;;;;;;;;;;5015654;28;20056;-58
2022/06/01 05:33:26;;;;;;;43.25;23.30;;;;;;;;;;5015701;28;20072;-58
2022/06/01 05:35:53;;;;;;;42.33;23.23;;;;;;;;;;5015903;28;20037;-59
2022/06/01 05:38:18;;;;;;;37.20;23.73;;;;;;;;;;5015709;28;20033;-57
2022/06/01 05:40:44;;;;;;;41.67;23.27;;;;;;;;;;5015475;28;20026;-49
2022/06/01 05:43:11;;;;;;;42.05;24.70;;;;;;;;;;5015869;28;20099;-58
2022/06/01 05:45:38;;;;;;;44.63;24.17;;;;;;;;;;5015782;28;20065;-58
2022/06/01 05:48:04;;;;;;;42.10;22.85;;;;;;;;;;5015498;28;20028;-58
2022/06/01 05:50:29;;;;;;;41.40;23.63;;;;;;;;;;5015509;28;20511;-58
2022/06/01 05:52:55;;;;;;;48.70;25.75;;;;;;;;;;5015529;28;20022;-56
2022/06/01 05:55:20;;;;;;;43.70;24.45;;;;;;;;;;5014391;28;20401;-59
2022/06/01 05:57:46;;;;;;;51.67;26.08;;;;;;;;;;5015452;28;20030;-58
2022/06/01 06:00:12;;;;;;;45.35;25.30;;;;;;;;;;5015157;28;20030;-58
2022/06/01 06:02:39;;;;;;;44.25;25.55;;;;;;;;;;5015307;28;20030;-58
2022/06/01 06:06:11;;;;;;;46.58;25.67;;;;;;;;;;5015149;28;20030;-58
2022/06/01 06:07:51;;;;;;;42.40;25.60;;;;;;;;;;5014813;28;20076;-53
2022/06/01 06:10:17;;;;;;;45.80;25.80;;;;;;;;;;5015053;28;20485;-57
2022/06/01 06:12:42;;;;;;;39.38;23.67;;;;;;;;;;5015206;28;20033;-57
2022/06/01 06:15:09;;;;;;;42.22;25.08;;;;;;;;;;5015232;28;20052;-57
2022/06/01 06:17:35;;;;;;;35.63;22.33;;;;;;;;;;5015024;28;20032;-55
2022/06/01 06:20:01;;;;;;;39.53;22.88;;;;;;;;;;4997120;28;20394;-56
2022/06/01 06:22:26;;;;;;;34.22;22.77;;;;;;;;;;5014814;28;20109;-56
2022/06/01 06:24:51;;;;;;;35.15;22.23;;;;;;;;;;4997445;28;20029;-56
2022/06/01 06:27:17;;;;;;;36.78;22.50;;;;;;;;;;5014759;28;20038;-56
2022/06/01 06:29:42;;;;;;;36.17;21.77;;;;;;;;;;5014543;28;20046;-56
2022/06/01 06:32:08;;;;;;;32.92;21.05;;;;;;;;;;5014665;28;20484;-56
2022/06/01 06:34:33;;;;;;;31.70;20.17;;;;;;;;;;5014556;28;20054;-55
2022/06/01 06:36:59;;;;;;;28.90;20.40;;;;;;;;;;5014606;28;20176;-56
2022/06/01 06:39:24;;;;;;;31.02;20.30;;;;;;;;;;5013938;28;20381;-56
2022/06/01 06:41:50;;;;;;;33.00;20.83;;;;;;;;;;5014341;28;20030;-54
2022/06/01 06:44:15;;;;;;;34.15;21.98;;;;;;;;;;5014652;28;20032;-55
2022/06/01 06:46:41;;;;;;;29.92;20.13;;;;;;;;;;5012641;28;20022;-57
2022/06/01 06:49:06;;;;;;;35.78;22.95;;;;;;;;;;5012675;28;20105;-48
2022/06/01 06:51:32;;;;;;;35.20;22.38;;;;;;;;;;4994902;28;20392;-54
2022/06/01 06:53:58;;;;;;;28.98;19.88;;;;;;;;;;5013870;28;20065;-52
2022/06/01 06:56:23;;;;;;;35.00;22.35;;;;;;;;;;5014093;28;20393;-55
2022/06/01 06:58:49;;;;;;;27.60;19.70;;;;;;;;;;5013832;28;20045;-55
2022/06/01 07:01:16;;;;;;;29.05;18.92;;;;;;;;;;5013857;28;20037;-45
2022/06/01 07:03:42;;;;;;;27.67;18.83;;;;;;;;;;5014258;28;20026;-52
2022/06/01 07:06:14;;;;;;;24.17;17.23;;;;;;;;;;5013784;28;20022;-52
2022/06/01 07:08:43;;;;;;;26.38;15.73;;;;;;;;;;5012515;28;20358;-56
2022/06/01 07:11:10;;;;;;;24.83;16.83;;;;;;;;;;5013036;28;20032;-55
2022/06/01 07:13:36;;;;;;;22.02;15.35;;;;;;;;;;5023144;28;20090;-56
2022/06/01 07:16:11;;;;;;;22.80;14.30;;;;;;;;;;5022207;28;20038;-54
2022/06/01 07:18:38;;;;;;;21.50;14.95;;;;;;;;;;4994213;28;20113;-56
2022/06/01 07:21:04;;;;;;;19.00;14.20;;;;;;;;;;5006236;28;20083;-55
2022/06/01 07:23:30;;;;;;;20.55;14.40;;;;;;;;;;5024024;28;20017;-51
2022/06/01 07:25:55;;;;;;;19.23;12.48;;;;;;;;;;5028154;28;20531;-49
2022/06/01 07:28:22;;;;;;;16.35;12.40;;;;;;;;;;5023481;28;20026;-55
2022/06/01 07:30:56;;;;;;;19.63;12.40;;;;;;;;;;5025746;28;20042;-47
2022/06/01 07:33:25;;;;;;;14.88;11.40;;;;;;;;;;5033166;28;20033;-50
2022/06/01 07:35:51;;;;;;;;;;;;;;;;;;5024532;28;20030;-51
2022/06/01 07:43:45;;;;;;;14.05;10.45;;;;;;;;;;5020658;28;20029;-48
2022/06/01 07:46:11;;;;;;;19.27;10.60;;;;;;;;;;5002869;28;20022;-58
2022/06/01 07:48:38;;;;;;;14.07;10.27;;;;;;;;;;5021153;28;20040;-57
2022/06/01 07:51:04;;;;;;;18.50;11.95;;;;;;;;;;5020571;28;20038;-53
2022/06/01 07:53:30;;;;;;;17.00;11.63;;;;;;;;;;5028365;28;20064;-57
2022/06/01 07:55:55;;;;;;;17.90;11.13;;;;;;;;;;5031262;28;20071;-56
2022/06/01 07:58:21;;;;;;;20.90;14.05;;;;;;;;;;5031532;28;20030;-57
2022/06/01 08:00:48;;;;;;;15.73;11.25;;;;;;;;;;5031533;28;20053;-57
2022/06/01 08:03:15;;;;;;;17.92;11.68;;;;;;;;;;5031134;28;20033;-56
2022/06/01 08:05:42;;;;;;;13.85;9.50;;;;;;;;;;5031366;28;20358;-49
2022/06/01 08:08:08;;;;;;;12.40;9.10;;;;;;;;;;5031116;28;20025;-50
2022/06/01 08:10:35;;;;;;;19.25;10.48;;;;;;;;;;5030585;28;20048;-57
2022/06/01 08:13:06;;;;;;;12.95;8.98;;;;;;;;;;5030891;28;20401;-57
2022/06/01 08:15:35;;;;;;;10.95;8.10;;;;;;;;;;5030992;28;20030;-58
2022/06/01 08:18:00;;;;;;;15.77;9.53;;;;;;;;;;5031292;28;20021;-56
2022/06/01 08:20:28;;;;;;;12.85;9.35;;;;;;;;;;5030887;28;20465;-60
2022/06/01 08:22:54;;;;;;;11.48;8.45;;;;;;;;;;5030911;28;20034;-51
2022/06/01 08:25:21;;;;;;;12.15;8.18;;;;;;;;;;5030717;28;20033;-57
2022/06/01 08:27:47;;;;;;;12.38;8.43;;;;;;;;;;5030732;28;20104;-52
2022/06/01 08:30:15;;;;;;;12.55;9.38;;;;;;;;;;5030241;28;20163;-54
2022/06/01 08:32:40;;;;;;;12.05;8.80;;;;;;;;;;4997256;28;20025;-52
2022/06/01 08:35:08;;;;;;;16.55;8.85;;;;;;;;;;5019447;28;20417;-57
2022/06/01 08:37:33;;;;;;;11.45;7.85;;;;;;;;;;5030609;28;20044;-57
2022/06/01 08:39:59;;;;;;;13.43;10.05;;;;;;;;;;5030577;28;20045;-54
2022/06/01 08:42:27;;;;;;;14.50;8.60;;;;;;;;;;5030578;28;20033;-56
2022/06/01 08:44:59;;;;;;;14.32;9.27;;;;;;;;;;5030585;28;20021;-55
2022/06/01 08:47:31;;;;;;;12.55;8.57;;;;;;;;;;5030487;28;20061;-56
2022/06/01 08:50:00;;;;;;;16.02;9.20;;;;;;;;;;5030602;28;20022;-47
2022/06/01 08:52:26;;;;;;;;;;;;;;;;;;5031203;28;20037;-48
2022/06/01 08:54:52;;;;;;;14.85;9.25;;;;;;;;;;5030793;28;19917;-51
2022/06/01 08:57:36;;;;;;;14.70;9.43;;;;;;;;;;5030389;28;20385;-47
2022/06/01 09:00:12;;;;;;;10.98;7.30;;;;;;;;;;5030805;28;20037;-46
2022/06/01 09:03:16;;;;;;;9.13;6.40;;;;;;;;;;5012464;28;20025;-48
2022/06/01 09:05:54;;;;;;;10.98;6.75;;;;;;;;;;5034507;28;20037;-45
2022/06/01 09:08:34;;;;;;;9.75;7.15;;;;;;;;;;5034532;28;20052;-50
2022/06/01 09:11:07;;;;;;;9.07;6.35;;;;;;;;;;5034615;28;20041;-46
2022/06/01 09:13:37;;;;;;;8.43;6.38;;;;;;;;;;5034177;28;20108;-47
2022/06/01 09:16:09;;;;;;;16.45;9.25;;;;;;;;;;5034304;28;20041;-53
2022/06/01 09:18:44;;;;;;;16.73;9.98;;;;;;;;;;5033972;28;20033;-52
2022/06/01 09:24:25;;;;;;;12.07;9.05;;;;;;;;;;5033970;28;20504;-47
2022/06/01 09:27:03;;;;;;;9.38;6.85;;;;;;;;;;5033997;28;20029;-49
2022/06/01 09:29:32;;;;;;;8.65;6.35;;;;;;;;;;5033987;28;20032;-50
2022/06/01 09:32:04;;;;;;;8.82;6.25;;;;;;;;;;5020398;28;20053;-56
2022/06/01 09:34:36;;;;;;;10.30;6.93;;;;;;;;;;5014153;28;20735;-54
2022/06/01 09:37:06;;;;;;;12.25;7.00;;;;;;;;;;5014336;28;20037;-57
2022/06/01 09:39:32;;;;;;;7.72;6.00;;;;;;;;;;5014077;28;20029;-57
2022/06/01 09:42:14;;;;;;;7.97;6.35;;;;;;;;;;5014101;28;20113;-57
2022/06/01 09:44:48;;;;;;;14.68;10.38;;;;;;;;;;5013954;28;20072;-54
2022/06/01 09:47:31;;;;;;;11.60;8.43;;;;;;;;;;5013740;28;20517;-55
2022/06/01 09:49:59;;;;;;;8.15;6.00;;;;;;;;;;5014190;28;20029;-55
2022/06/01 09:52:32;;;;;;;11.77;8.23;;;;;;;;;;5013690;28;20072;-57
2022/06/01 09:55:09;;;;;;;11.13;7.75;;;;;;;;;;5014188;28;20282;-60
2022/06/01 09:57:38;;;;;;;13.18;9.20;;;;;;;;;;5013533;28;20028;-47
2022/06/01 10:06:27;;;;;;;8.05;6.40;;;;;;;;;;5014004;28;20037;-54
2022/06/01 10:08:58;;;;;;;6.15;5.22;;;;;;;;;;5013298;28;20034;-48
2022/06/01 10:11:33;;;;;;;13.68;4.80;;;;;;;;;;5013562;28;20040;-53
2022/06/01 10:14:30;;;;;;;4.68;3.13;;;;;;;;;;5012546;28;20414;-60
2022/06/01 10:17:19;;;;;;;3.03;2.55;;;;;;;;;;5013205;28;20561;-52
2022/06/01 10:20:15;;;;;;;4.20;1.98;;;;;;;;;;5013405;28;20085;-59
2022/06/01 10:23:01;;;;;;;2.42;1.80;;;;;;;;;;5012509;28;20037;-60
2022/06/01 10:25:37;;;;;;;2.03;1.83;;;;;;;;;;4998986;28;20042;-57
2022/06/01 10:28:11;;;;;;;3.92;2.05;;;;;;;;;;5013230;28;20033;-53
2022/06/01 10:30:40;;;;;;;6.07;2.15;;;;;;;;;;5012809;28;20089;-52
2022/06/01 10:33:12;;;;;;;2.00;1.80;;;;;;;;;;5013317;28;20061;-52
2022/06/01 10:36:13;;;;;;;2.00;1.90;;;;;;;;;;5013129;28;20049;-52
2022/06/01 10:38:46;;;;;;;2.30;1.75;;;;;;;;;;5004415;28;20561;-44
2022/06/01 10:41:24;;;;;;;4.57;1.85;;;;;;;;;;5020668;28;20125;-58
2022/06/01 10:44:12;;;;;;;1.70;1.60;;;;;;;;;;5012870;28;20421;-45
2022/06/01 10:47:02;;;;;;;1.70;1.60;;;;;;;;;;5012981;28;20028;-45
2022/06/01 10:49:48;;;;;;;13.07;2.65;;;;;;;;;;5013206;28;20473;-42
2022/06/01 10:52:16;;;;;;;1.60;1.50;;;;;;;;;;5021147;28;20026;-45
2022/06/01 10:55:05;;;;;;;2.40;1.50;;;;;;;;;;5022126;28;20026;-45
2022/06/01 10:57:31;;;;;;;1.77;1.58;;;;;;;;;;5023414;28;20028;-42
2022/06/01 10:59:57;;;;;;;2.40;1.70;;;;;;;;;;5032775;28;20021;-41
2022/06/01 11:02:39;;;;;;;5.30;1.30;;;;;;;;;;5023224;28;20041;-41
2022/06/01 11:05:13;;;;;;;1.83;1.38;;;;;;;;;;5020363;28;20034;-48
2022/06/01 11:08:14;;;;;;;2.17;1.33;;;;;;;;;;5018800;28;20033;-42
2022/06/01 11:10:51;;;;;;;6.07;2.22;;;;;;;;;;4995080;28;20464;-42
2022/06/01 11:13:53;;;;;;;1.58;1.48;;;;;;;;;;5020844;28;20061;-46
2022/06/01 11:16:44;;;;;;;2.65;1.50;;;;;;;;;;5018142;28;20025;-43
2022/06/01 11:19:14;;;;;;;3.88;2.63;;;;;;;;;;5021061;28;20048;-42
2022/06/01 11:22:12;;;;;;;1.80;1.67;;;;;;;;;;5017686;28;20103;-41
2022/06/01 11:24:44;;;;;;;2.47;1.25;;;;;;;;;;4984615;28;20505;-42
2022/06/01 11:27:42;;;;;;;3.22;1.80;;;;;;;;;;5011545;28;20045;-44
2022/06/01 11:30:14;;;;;;;9.55;5.18;;;;;;;;;;5011942;28;20466;-44
2022/06/01 11:32:55;;;;;;;1.70;1.55;;;;;;;;;;5012390;28;20414;-41
2022/06/01 11:35:42;;;;;;;2.15;1.40;;;;;;;;;;5011906;28;20045;-41
2022/06/01 11:38:28;;;;;;;5.03;3.28;;;;;;;;;;5012195;28;20112;-52
2022/06/01 11:41:03;;;;;;;9.82;5.85;;;;;;;;;;5011805;28;20030;-56
2022/06/01 11:43:40;;;;;;;6.78;3.20;;;;;;;;;;5011940;28;20069;-52
2022/06/01 11:46:21;;;;;;;8.00;4.55;;;;;;;;;;5011817;28;20028;-44
2022/06/01 11:48:52;;;;;;;4.25;2.55;;;;;;;;;;5011676;28;20474;-44
2022/06/01 11:51:21;;;;;;;11.88;4.35;;;;;;;;;;5011507;28;20480;-42
2022/06/01 11:53:58;;;;;;;13.75;6.75;;;;;;;;;;5011815;28;20033;-41
2022/06/01 11:56:33;;;;;;;8.55;3.97;;;;;;;;;;5011597;28;20036;-41
2022/06/01 11:59:15;;;;;;;6.85;2.70;;;;;;;;;;5011911;28;20077;-52
2022/06/01 12:01:41;;;;;;;3.95;2.50;;;;;;;;;;5011429;28;20088;-45
2022/06/01 12:04:28;;;;;;;12.43;6.38;;;;;;;;;;5011523;28;20034;-44
2022/06/01 12:07:08;;;;;;;1.58;1.20;;;;;;;;;;5011615;28;20064;-41
2022/06/01 12:09:59;;;;;;;2.55;2.10;;;;;;;;;;5011298;28;20052;-41
2022/06/01 12:12:44;;;;;;;1.80;1.70;;;;;;;;;;5010923;28;20481;-49
2022/06/01 12:15:40;;;;;;;5.57;2.20;;;;;;;;;;5011302;28;20116;-41
2022/06/01 12:18:16;;;;;;;1.63;1.52;;;;;;;;;;5011281;28;20030;-40
2022/06/01 12:20:54;;;;;;;4.32;2.75;;;;;;;;;;5011201;28;20471;-41
2022/06/01 12:29:08;;;;;;;5.15;2.17;;;;;;;;;;5031153;28;20083;-43
2022/06/01 12:31:54;;;;;;;3.70;1.92;;;;;;;;;;5030679;28;20060;-41
2022/06/01 12:34:27;;;;;;;14.88;6.40;;;;;;;;;;4995901;28;20057;-46
2022/06/01 12:37:08;;;;;;;3.58;1.88;;;;;;;;;;5031025;28;20086;-41
2022/06/01 12:39:43;;;;;;;6.03;3.40;;;;;;;;;;5030240;28;20033;-40
2022/06/01 12:42:15;;;;;;;7.63;4.75;;;;;;;;;;5030793;28;20032;-40
2022/06/01 12:44:44;;;;;;;2.22;1.67;;;;;;;;;;5030032;28;20484;-44
2022/06/01 12:47:27;;;;;;;1.55;1.45;;;;;;;;;;5030676;28;20033;-49
2022/06/01 12:49:52;;;;;;;3.75;2.00;;;;;;;;;;5030781;28;20045;-47
2022/06/01 12:52:21;;;;;;;3.55;1.80;;;;;;;;;;5030354;28;20408;-51
2022/06/01 12:54:50;;;;;;;5.28;3.35;;;;;;;;;;5030880;28;20377;-41
2022/06/01 12:57:43;;;;;;;4.60;1.90;;;;;;;;;;5030729;28;20025;-42
2022/06/01 13:00:30;;;;;;;3.53;1.75;;;;;;;;;;5017235;28;20037;-42
2022/06/01 13:02:56;;;;;;;1.42;1.33;;;;;;;;;;5030537;28;20482;-44
2022/06/01 13:05:32;;;;;;;1.98;1.50;;;;;;;;;;5024406;28;20084;-43
2022/06/01 13:07:59;;;;;;;3.25;1.23;;;;;;;;;;5012808;28;20033;-41
2022/06/01 13:10:28;;;;;;;2.63;1.80;;;;;;;;;;5030481;28;20021;-45
2022/06/01 13:13:12;;;;;;;5.20;2.20;;;;;;;;;;5030044;28;20055;-41
2022/06/01 13:15:42;;;;;;;4.72;1.65;;;;;;;;;;5012861;28;20033;-43
2022/06/01 13:18:18;;;;;;;5.32;2.03;;;;;;;;;;5030613;28;20507;-40
2022/06/01 13:20:52;;;;;;;2.50;1.90;;;;;;;;;;5030424;28;20029;-54
2022/06/01 13:23:33;;;;;;;2.97;2.03;;;;;;;;;;5030159;28;20029;-41
2022/06/01 13:26:05;;;;;;;6.07;3.70;;;;;;;;;;5030279;28;20032;-51
2022/06/01 13:28:31;;;;;;;5.35;2.40;;;;;;;;;;5030515;28;20037;-41
2022/06/01 13:30:58;;;;;;;2.40;2.08;;;;;;;;;;5030027;28;20045;-40
2022/06/01 13:33:31;;;;;;;2.75;1.63;;;;;;;;;;5030259;28;20108;-54
2022/06/01 13:36:00;;;;;;;4.07;2.53;;;;;;;;;;5030566;28;20355;-40
2022/06/01 13:39:01;;;;;;;5.75;2.38;;;;;;;;;;5021228;28;20097;-43
2022/06/01 13:41:55;;;;;;;2.20;1.80;;;;;;;;;;4986849;28;20074;-41
2022/06/01 13:44:42;;;;;;;2.30;1.90;;;;;;;;;;4990604;28;20034;-41
2022/06/01 13:47:08;;;;;;;1.13;1.13;;;;;;;;;;4990780;28;20042;-44
2022/06/01 13:49:34;;;;;;;1.50;1.10;;;;;;;;;;4992283;28;20033;-41
2022/06/01 13:52:03;;;;;;;1.80;1.40;;;;;;;;;;4994180;28;20042;-48
2022/06/01 13:54:34;;;;;;;1.70;1.60;;;;;;;;;;5000526;28;20060;-53
2022/06/01 13:57:19;;;;;;;1.77;1.23;;;;;;;;;;5013715;28;20022;-46
2022/06/01 13:59:55;;;;;;;2.33;1.30;;;;;;;;;;5014007;28;20037;-42
2022/06/01 14:02:33;;;;;;;1.30;1.20;;;;;;;;;;5021853;28;20030;-56
2022/06/01 14:05:11;;;;;;;2.17;1.30;;;;;;;;;;5004218;28;20501;-40
2022/06/01 14:07:49;;;;;;;1.65;1.27;;;;;;;;;;5021999;28;20112;-41
2022/06/01 14:10:16;;;;;;;1.60;1.20;;;;;;;;;;5022192;28;20101;-42
2022/06/01 14:12:44;;;;;;;2.13;1.35;;;;;;;;;;5022110;28;20461;-40
2022/06/01 14:15:12;;;;;;;2.45;1.10;;;;;;;;;;5019017;28;20026;-43
2022/06/01 14:17:42;;;;;;;2.08;1.45;;;;;;;;;;5022668;28;20067;-41
2022/06/01 14:20:10;;;;;;;2.42;1.70;;;;;;;;;;5024080;28;20036;-41
2022/06/01 14:22:36;;;;;;;4.10;1.58;;;;;;;;;;5022614;28;20030;-53
2022/06/01 14:30:31;;;;;;;1.48;1.10;;;;;;;;;;5012886;28;20460;-40
2022/06/01 14:32:56;;;;;;;2.35;1.33;;;;;;;;;;5013259;28;20025;-41
2022/06/01 14:35:22;;;;;;;2.30;1.95;;;;;;;;;;5013195;28;20100;-41
2022/06/01 14:37:50;;;;;;;1.60;1.50;;;;;;;;;;4995344;28;20038;-40
2022/06/01 14:40:16;;;;;;;2.08;1.88;;;;;;;;;;5012955;28;20030;-41
2022/06/01 14:42:42;;;;;;;1.80;1.30;;;;;;;;;;5013213;28;20030;-41
2022/06/01 14:45:08;;;;;;;2.40;1.70;;;;;;;;;;5024547;28;20416;-40
2022/06/01 14:47:34;;;;;;;4.85;1.80;;;;;;;;;;5032601;28;20025;-53
2022/06/01 14:49:59;;;;;;;1.58;1.48;;;;;;;;;;5032805;28;20033;-41
2022/06/01 14:52:25;;;;;;;2.78;1.63;;;;;;;;;;5032603;28;20453;-43
2022/06/01 14:54:51;;;;;;;10.18;1.70;;;;;;;;;;5032284;28;20390;-41
2022/06/01 14:57:17;;;;;;;2.83;1.42;;;;;;;;;;5032453;28;20033;-44
2022/06/01 14:59:46;;;;;;;1.58;1.10;;;;;;;;;;5023687;28;20064;-43
2022/06/01 15:02:14;;;;;;;3.03;1.45;;;;;;;;;;5018374;28;20140;-42
2022/06/01 15:04:41;;;;;;;2.15;1.33;;;;;;;;;;5021388;28;20030;-40
2022/06/01 15:07:08;;;;;;;3.78;1.40;;;;;;;;;;5023289;28;20038;-40
2022/06/01 15:09:36;;;;;;;2.50;1.50;;;;;;;;;;5032253;28;20025;-43
2022/06/01 15:12:03;;;;;;;3.35;1.40;;;;;;;;;;5031841;28;20539;-51
2022/06/01 15:14:29;;;;;;;1.50;1.40;;;;;;;;;;5031904;28;20492;-59
2022/06/01 15:16:57;;;;;;;1.45;1.35;;;;;;;;;;5031906;28;20025;-57
2022/06/01 15:19:28;;;;;;;11.52;4.45;;;;;;;;;;5032270;28;20026;-57